createdAt,value
2022-09-25T00:04:00.019Z,93194.56
2022-09-25T00:09:10.763Z,93189.77
2022-09-25T00:14:20.070Z,93175.30
2022-09-25T00:19:45.331Z,93181.81
2022-09-25T00:24:54.812Z,93184.48
2022-09-25T00:30:05.112Z,93180.73
2022-09-25T00:35:13.217Z,93180.31
2022-09-25T00:40:21.205Z,93181.12
2022-09-25T00:45:28.711Z,93176.86
2022-09-25T00:50:56.869Z,93162.34
2022-09-25T00:56:09.812Z,93147.29
2022-09-25T01:01:18.486Z,93141.58
2022-09-25T01:06:32.466Z,93148.52
2022-09-25T01:11:40.377Z,93147.69
2022-09-25T01:16:56.687Z,93138.63
2022-09-25T01:22:37.291Z,93152.86
2022-09-25T01:27:49.166Z,93149.51
2022-09-25T01:33:06.742Z,93151.55
2022-09-25T01:38:42.094Z,93162.39
2022-09-25T01:44:13.095Z,93155.48
2022-09-25T01:49:25.619Z,93140.66
2022-09-25T01:54:52.832Z,93134.36
2022-09-25T02:00:10.711Z,93130.34
2022-09-25T02:05:27.975Z,93121.01
2022-09-25T02:10:39.624Z,93132.77
2022-09-25T02:15:56.335Z,93133.59
2022-09-25T02:21:49.830Z,93142.78
2022-09-25T02:26:58.149Z,93148.20
2022-09-25T02:32:14.656Z,93153.00
2022-09-25T02:37:23.838Z,93168.75
2022-09-25T02:43:03.802Z,93157.22
2022-09-25T02:48:31.475Z,93152.41
2022-09-25T02:54:05.398Z,93141.66
2022-09-25T02:59:31.813Z,93138.29
2022-09-25T03:04:41.608Z,93140.45
2022-09-25T03:09:51.301Z,93130.53
2022-09-25T03:14:58.869Z,93141.18
2022-09-25T03:20:07.682Z,93121.00
2022-09-25T03:25:16.982Z,93125.27
2022-09-25T03:30:25.107Z,93116.84
2022-09-25T03:35:31.848Z,93124.67
2022-09-25T03:40:39.826Z,93122.46
2022-09-25T03:45:47.446Z,93121.00
2022-09-25T03:50:57.068Z,93129.90
2022-09-25T03:56:25.842Z,93130.09
2022-09-25T04:01:35.512Z,93140.48
2022-09-25T04:06:42.222Z,93143.20
2022-09-25T04:11:48.901Z,93137.39
2022-09-25T04:16:55.658Z,93138.47
2022-09-25T04:22:02.366Z,93142.17
2022-09-25T04:27:09.043Z,93137.39
2022-09-25T04:32:36.084Z,93141.27
2022-09-25T04:37:42.782Z,93142.36
2022-09-25T04:42:49.493Z,93148.90
2022-09-25T04:47:58.575Z,93144.38
2022-09-25T04:53:05.994Z,93145.25
2022-09-25T04:58:13.603Z,93150.67
2022-09-25T05:03:20.378Z,93154.23
2022-09-25T05:08:28.641Z,93160.69
2022-09-25T05:13:35.309Z,93158.59
2022-09-25T05:18:42.194Z,93164.94
2022-09-25T05:23:48.890Z,93161.00
2022-09-25T05:28:55.587Z,93168.39
2022-09-25T05:34:02.275Z,93163.49
2022-09-25T05:39:14.328Z,93163.78
2022-09-25T05:44:22.073Z,93170.23
2022-09-25T05:49:29.231Z,93164.78
2022-09-25T05:54:36.005Z,93170.21
2022-09-25T05:59:42.724Z,93174.00
2022-09-25T06:04:49.455Z,93180.72
2022-09-25T06:09:56.168Z,93177.16
2022-09-25T06:15:02.879Z,93175.80
2022-09-25T06:20:15.800Z,93168.59
2022-09-25T06:25:20.203Z,93173.08
2022-09-25T06:30:31.996Z,93184.70
2022-09-25T06:35:45.484Z,93179.84
2022-09-25T06:40:52.372Z,93170.50
2022-09-25T06:46:05.866Z,93164.86
2022-09-25T06:51:12.557Z,93160.16
2022-09-25T06:56:19.271Z,93172.46
2022-09-25T07:01:26.085Z,93171.83
2022-09-25T07:06:34.376Z,93163.50
2022-09-25T07:11:42.687Z,93174.05
2022-09-25T07:16:49.425Z,93188.48
2022-09-25T07:21:56.248Z,93179.04
2022-09-25T07:27:02.969Z,93184.50
2022-09-25T07:32:10.871Z,93185.50
2022-09-25T07:37:19.202Z,93180.83
2022-09-25T07:42:25.882Z,93171.83
2022-09-25T07:47:32.491Z,93176.71
2022-09-25T07:52:39.235Z,93182.73
2022-09-25T07:57:45.983Z,93192.64
2022-09-25T08:03:01.477Z,93193.47
2022-09-25T08:08:08.153Z,93200.35
2022-09-25T08:13:14.865Z,93196.80
2022-09-25T08:18:21.668Z,93197.16
2022-09-25T08:23:29.113Z,93198.06
2022-09-25T08:28:36.188Z,93192.33
2022-09-25T08:33:51.743Z,93204.91
2022-09-25T08:38:59.997Z,93215.42
2022-09-25T08:45:08.945Z,93208.48
2022-09-25T08:50:21.632Z,93206.20
2022-09-25T08:55:56.372Z,93203.63
2022-09-25T09:01:13.690Z,93198.67
2022-09-25T09:06:25.227Z,93205.31
2022-09-25T09:11:39.126Z,93199.81
2022-09-25T09:16:49.192Z,93198.06
2022-09-25T09:22:17.825Z,93198.65
2022-09-25T09:28:00.636Z,93202.19
2022-09-25T09:33:28.643Z,93207.50
2022-09-25T09:39:19.421Z,93208.87
2022-09-25T09:45:00.922Z,93211.31
2022-09-25T09:50:31.224Z,93209.10
2022-09-25T09:55:51.350Z,93208.14
2022-09-25T10:01:06.939Z,93211.09
2022-09-25T10:06:10.407Z,93204.05
2022-09-25T10:11:20.617Z,93200.34
2022-09-25T10:16:28.236Z,93198.65
2022-09-25T10:21:39.405Z,93199.09
2022-09-25T10:26:46.121Z,93187.97
2022-09-25T10:32:03.953Z,93179.33
2022-09-25T10:37:22.241Z,93179.30
2022-09-25T10:42:39.472Z,93180.73
2022-09-25T10:48:05.052Z,93170.69
2022-09-25T10:53:29.740Z,93169.09
2022-09-25T10:58:48.033Z,93152.33
2022-09-25T11:09:18.016Z,93153.75
2022-09-25T11:14:37.052Z,93151.43
2022-09-25T11:19:43.794Z,93158.42
2022-09-25T11:25:19.225Z,93156.31
2022-09-25T11:30:31.137Z,93159.86
2022-09-25T11:35:49.016Z,93159.90
2022-09-25T11:41:16.646Z,93147.34
2022-09-25T11:46:42.190Z,93138.67
2022-09-25T11:52:06.498Z,93139.05
2022-09-25T11:57:34.838Z,93136.62
2022-09-25T12:02:57.074Z,93131.28
2022-09-25T12:08:40.176Z,93116.43
2022-09-25T12:14:03.622Z,93103.13
2022-09-25T12:19:18.957Z,93102.39
2022-09-25T12:24:51.348Z,93100.31
2022-09-25T12:30:24.164Z,93086.97
2022-09-25T12:36:03.642Z,93084.88
2022-09-25T12:41:18.651Z,93084.36
2022-09-25T12:46:44.932Z,93090.03
2022-09-25T12:51:59.070Z,93090.02
2022-09-25T12:57:37.423Z,93085.16
2022-09-25T13:03:03.248Z,93084.84
2022-09-25T13:08:17.102Z,93085.20
2022-09-25T13:13:30.961Z,93083.19
2022-09-25T13:18:39.881Z,93071.97
2022-09-25T13:23:50.629Z,93074.69
2022-09-25T13:29:04.738Z,93070.60
2022-09-25T13:34:18.791Z,93077.47
2022-09-25T13:40:07.930Z,93065.80
2022-09-25T13:45:32.710Z,93067.11
2022-09-25T13:50:50.523Z,93064.89
2022-09-25T13:56:04.868Z,93057.87
2022-09-25T14:01:16.050Z,93056.24
2022-09-25T14:06:38.250Z,93055.08
2022-09-25T14:11:45.825Z,93041.59
2022-09-25T14:16:56.088Z,93034.39
2022-09-25T14:22:06.108Z,93027.87
2022-09-25T14:27:28.617Z,93026.59
2022-09-25T14:33:01.224Z,93021.81
2022-09-25T14:38:29.164Z,93014.59
2022-09-25T14:43:46.131Z,93009.05
2022-09-25T14:49:00.034Z,93007.91
2022-09-25T14:54:07.490Z,93009.69
2022-09-25T14:59:18.356Z,93008.28
2022-09-25T15:04:33.743Z,93000.70
2022-09-25T15:09:45.967Z,93003.78
2022-09-25T15:15:09.612Z,93003.21
2022-09-25T15:20:21.926Z,92987.03
2022-09-25T15:25:44.289Z,92984.36
2022-09-25T15:31:00.590Z,92982.48
2022-09-25T15:36:24.530Z,92983.25
2022-09-25T15:41:32.355Z,92992.78
2022-09-25T15:46:43.569Z,92991.09
2022-09-25T15:51:55.017Z,92999.09
2022-09-25T15:57:07.136Z,92991.08
2022-09-25T16:02:37.825Z,92985.65
2022-09-25T16:07:47.731Z,92988.68
2022-09-25T16:12:54.723Z,92986.17
2022-09-25T16:18:06.520Z,92982.61
2022-09-25T16:23:23.842Z,92991.20
2022-09-25T16:28:33.904Z,92986.88
2022-09-25T16:33:47.854Z,92978.19
2022-09-25T16:39:05.609Z,92973.67
2022-09-25T16:44:25.500Z,92974.91
2022-09-25T16:49:34.857Z,92968.35
2022-09-25T16:54:42.117Z,92961.84
2022-09-25T16:59:49.048Z,92959.95
2022-09-25T17:04:55.783Z,92969.00
2022-09-25T17:10:02.728Z,92970.27
2022-09-25T17:15:29.809Z,92973.23
2022-09-25T17:20:37.600Z,92979.70
2022-09-25T17:26:03.602Z,92986.32
2022-09-25T17:31:14.826Z,92980.89
2022-09-25T17:36:22.322Z,92980.67
2022-09-25T17:41:37.383Z,92975.80
2022-09-25T17:46:42.942Z,92969.20
2022-09-25T17:51:49.450Z,92965.84
2022-09-25T17:56:56.803Z,92973.88
2022-09-25T18:02:04.161Z,92980.34
2022-09-25T18:07:10.928Z,92984.19
2022-09-25T18:12:17.628Z,92982.77
2022-09-25T18:17:24.338Z,92975.73
2022-09-25T18:22:31.040Z,92993.88
2022-09-25T18:27:37.777Z,92990.08
2022-09-25T18:32:44.880Z,92993.19
2022-09-25T18:37:52.587Z,92980.61
2022-09-25T18:43:00.902Z,92983.21
2022-09-25T18:48:07.605Z,92992.61
2022-09-25T18:53:16.357Z,92999.39
2022-09-25T18:58:23.071Z,92993.16
2022-09-25T19:03:30.810Z,92994.53
2022-09-25T19:08:38.695Z,92998.42
2022-09-25T19:13:46.225Z,92993.71
2022-09-25T19:18:53.131Z,92993.21
2022-09-25T19:24:01.833Z,92978.52
2022-09-25T19:29:08.682Z,92977.59
2022-09-25T19:34:16.210Z,92973.50
2022-09-25T19:39:22.940Z,92965.99
2022-09-25T19:44:31.497Z,92973.80
2022-09-25T19:49:38.255Z,92969.76
2022-09-25T19:54:44.955Z,92964.44
2022-09-25T19:59:51.625Z,92980.29
2022-09-25T20:04:58.373Z,92977.30
2022-09-25T20:10:05.292Z,92966.31
2022-09-25T20:15:12.629Z,92960.45
2022-09-25T20:20:19.537Z,92954.48
2022-09-25T20:25:28.360Z,92945.79
2022-09-25T20:30:35.808Z,92949.91
2022-09-25T20:35:42.589Z,92947.02
2022-09-25T20:40:50.461Z,92937.66
2022-09-25T20:46:08.489Z,92937.30
2022-09-25T20:51:19.578Z,92935.48
2022-09-25T20:56:30.004Z,92939.53
2022-09-25T21:01:40.646Z,92939.92
2022-09-25T21:06:47.443Z,92933.02
2022-09-25T21:11:55.747Z,92943.09
2022-09-25T21:17:03.274Z,92929.03
2022-09-25T21:22:09.976Z,92927.39
2022-09-25T21:27:16.722Z,92926.44
2022-09-25T21:32:23.418Z,92926.02
2022-09-25T21:37:31.344Z,92917.58
2022-09-25T21:42:38.050Z,92914.13
2022-09-25T21:47:44.791Z,92912.95
2022-09-25T21:52:51.490Z,92917.84
2022-09-25T21:57:58.222Z,92905.27
2022-09-25T22:03:05.057Z,92896.45
2022-09-25T22:08:11.824Z,92895.91
2022-09-25T22:13:18.563Z,92894.94
2022-09-25T22:18:26.635Z,92897.72
2022-09-25T22:23:35.006Z,92899.16
2022-09-25T22:28:43.059Z,92895.47
2022-09-25T22:33:53.989Z,92886.16
2022-09-25T22:39:01.550Z,92876.53
2022-09-25T22:44:08.782Z,92876.47
2022-09-25T22:49:15.850Z,92876.80
2022-09-25T22:54:25.793Z,92878.22
2022-09-25T22:59:34.201Z,92884.13
2022-09-25T23:04:41.161Z,92878.74
2022-09-25T23:09:49.312Z,92875.92
2022-09-25T23:14:57.290Z,92868.89
2022-09-25T23:20:04.309Z,92865.20
2022-09-25T23:25:12.330Z,92862.69
2022-09-25T23:30:19.821Z,92865.16
2022-09-25T23:35:28.112Z,92866.67
2022-09-25T23:40:36.161Z,92864.55
2022-09-25T23:45:44.047Z,92861.42
2022-09-25T23:50:51.920Z,92858.63
2022-09-25T23:55:58.827Z,92845.88
